North Egremont, Massachusetts
Current Conditions -  °F | °C
As of 7:11 AM on Sunday 25 Jan 2015 (Local Time) from KPSF Reporting Station
Light Snow Light Snow  
Wind Chill: 20°   Ceiling: 2900
Heat Index: 30°   Visibility: 4mi
Dew Point: 22°   Wind: 14mph
Humidity: 72%   Direction: 290°WNW
Pressure: 29.5"   Gusts: 24mph
Location:  42.2°N, 73.44°W
Report Text: KPSF 251211Z AUTO 29012G21KT 260V320 4SM -SN SCT023 BKN029 OVC047 M01/M06 A2950 RMK AO2 SNB1156 P0000 T10111056
Loading
Personal Weather Stations






























Interactive Weather Map New forecast layout! Learn more

10-Day Weather Forecast

Advertisements
Track Severe Weather on mobile